sensor_id;sensor_type;location;lat;lon;timestamp;P1;durP1;ratioP1;P2;durP2;ratioP2
69083;SDS011;56185;48.526;9.044;2023-02-28T00:00:19;5.32;;;2.53;;
69083;SDS011;56185;48.526;9.044;2023-02-28T00:02:45;4.35;;;2.88;;
69083;SDS011;56185;48.526;9.044;2023-02-28T00:05:11;4.25;;;2.45;;
69083;SDS011;56185;48.526;9.044;2023-02-28T00:07:38;5.05;;;2.90;;
69083;SDS011;56185;48.526;9.044;2023-02-28T00:10:04;5.25;;;2.85;;
69083;SDS011;56185;48.526;9.044;2023-02-28T00:12:30;3.85;;;2.50;;
69083;SDS011;56185;48.526;9.044;2023-02-28T00:14:56;4.63;;;2.72;;
69083;SDS011;56185;48.526;9.044;2023-02-28T00:17:21;3.67;;;2.55;;
69083;SDS011;56185;48.526;9.044;2023-02-28T00:19:47;4.07;;;2.47;;
69083;SDS011;56185;48.526;9.044;2023-02-28T00:22:13;3.90;;;2.60;;
69083;SDS011;56185;48.526;9.044;2023-02-28T00:24:39;4.88;;;2.80;;
69083;SDS011;56185;48.526;9.044;2023-02-28T00:27:04;3.90;;;2.33;;
69083;SDS011;56185;48.526;9.044;2023-02-28T00:29:29;4.18;;;2.70;;
69083;SDS011;56185;48.526;9.044;2023-02-28T00:31:54;4.20;;;2.42;;
69083;SDS011;56185;48.526;9.044;2023-02-28T00:34:19;4.57;;;2.65;;
69083;SDS011;56185;48.526;9.044;2023-02-28T00:36:45;5.07;;;2.92;;
69083;SDS011;56185;48.526;9.044;2023-02-28T00:39:10;4.65;;;2.70;;
69083;SDS011;56185;48.526;9.044;2023-02-28T00:41:36;2.83;;;2.25;;
69083;SDS011;56185;48.526;9.044;2023-02-28T00:44:01;3.35;;;2.50;;
69083;SDS011;56185;48.526;9.044;2023-02-28T00:46:26;4.95;;;2.65;;
69083;SDS011;56185;48.526;9.044;2023-02-28T00:48:51;4.72;;;2.85;;
69083;SDS011;56185;48.526;9.044;2023-02-28T00:51:17;3.90;;;2.60;;
69083;SDS011;56185;48.526;9.044;2023-02-28T00:53:42;4.43;;;2.50;;
69083;SDS011;56185;48.526;9.044;2023-02-28T00:56:07;3.97;;;2.60;;
69083;SDS011;56185;48.526;9.044;2023-02-28T00:58:32;3.90;;;2.42;;
69083;SDS011;56185;48.526;9.044;2023-02-28T01:00:58;4.40;;;3.05;;
69083;SDS011;56185;48.526;9.044;2023-02-28T01:03:23;4.15;;;2.65;;
69083;SDS011;56185;48.526;9.044;2023-02-28T01:05:48;3.95;;;2.60;;
69083;SDS011;56185;48.526;9.044;2023-02-28T01:08:14;4.85;;;2.70;;
69083;SDS011;56185;48.526;9.044;2023-02-28T01:10:39;5.22;;;2.78;;
69083;SDS011;56185;48.526;9.044;2023-02-28T01:13:05;4.63;;;2.55;;
69083;SDS011;56185;48.526;9.044;2023-02-28T01:15:30;4.13;;;2.22;;
69083;SDS011;56185;48.526;9.044;2023-02-28T01:17:55;6.70;;;2.95;;
69083;SDS011;56185;48.526;9.044;2023-02-28T01:20:21;3.58;;;2.72;;
69083;SDS011;56185;48.526;9.044;2023-02-28T01:22:46;4.80;;;2.70;;
69083;SDS011;56185;48.526;9.044;2023-02-28T01:25:11;3.25;;;2.42;;
69083;SDS011;56185;48.526;9.044;2023-02-28T01:27:37;4.80;;;2.70;;
69083;SDS011;56185;48.526;9.044;2023-02-28T01:30:02;6.28;;;2.50;;
69083;SDS011;56185;48.526;9.044;2023-02-28T01:32:28;4.05;;;2.65;;
69083;SDS011;56185;48.526;9.044;2023-02-28T01:34:53;4.72;;;2.53;;
69083;SDS011;56185;48.526;9.044;2023-02-28T01:37:18;3.35;;;2.40;;
69083;SDS011;56185;48.526;9.044;2023-02-28T01:39:44;3.78;;;2.50;;
69083;SDS011;56185;48.526;9.044;2023-02-28T01:42:12;8.27;;;2.80;;
69083;SDS011;56185;48.526;9.044;2023-02-28T01:47:32;4.95;;;2.65;;
69083;SDS011;56185;48.526;9.044;2023-02-28T01:50:02;4.25;;;2.55;;
69083;SDS011;56185;48.526;9.044;2023-02-28T01:52:30;3.97;;;2.40;;
69083;SDS011;56185;48.526;9.044;2023-02-28T01:54:57;4.68;;;2.65;;
69083;SDS011;56185;48.526;9.044;2023-02-28T01:57:27;4.63;;;2.88;;
69083;SDS011;56185;48.526;9.044;2023-02-28T01:59:59;4.80;;;2.70;;
69083;SDS011;56185;48.526;9.044;2023-02-28T02:02:27;4.55;;;2.90;;
69083;SDS011;56185;48.526;9.044;2023-02-28T02:04:58;5.90;;;2.80;;
69083;SDS011;56185;48.526;9.044;2023-02-28T02:07:27;5.82;;;2.83;;
69083;SDS011;56185;48.526;9.044;2023-02-28T02:10:00;4.32;;;2.72;;
69083;SDS011;56185;48.526;9.044;2023-02-28T02:15:39;3.65;;;2.50;;
69083;SDS011;56185;48.526;9.044;2023-02-28T02:18:30;4.38;;;2.75;;
69083;SDS011;56185;48.526;9.044;2023-02-28T02:21:03;3.92;;;2.70;;
69083;SDS011;56185;48.526;9.044;2023-02-28T02:40:17;7.70;;;2.80;;
69083;SDS011;56185;48.526;9.044;2023-02-28T02:45:12;5.13;;;2.78;;
69083;SDS011;56185;48.526;9.044;2023-02-28T02:47:47;5.70;;;3.28;;
69083;SDS011;56185;48.526;9.044;2023-02-28T02:50:17;6.25;;;3.15;;
69083;SDS011;56185;48.526;9.044;2023-02-28T02:52:48;4.40;;;2.95;;
69083;SDS011;56185;48.526;9.044;2023-02-28T02:55:18;5.10;;;2.78;;
69083;SDS011;56185;48.526;9.044;2023-02-28T02:57:46;5.05;;;3.05;;
69083;SDS011;56185;48.526;9.044;2023-02-28T03:00:16;3.97;;;2.97;;
69083;SDS011;56185;48.526;9.044;2023-02-28T03:02:44;9.93;;;3.28;;
69083;SDS011;56185;48.526;9.044;2023-02-28T03:05:14;4.93;;;3.10;;
69083;SDS011;56185;48.526;9.044;2023-02-28T03:07:45;5.43;;;2.95;;
69083;SDS011;56185;48.526;9.044;2023-02-28T03:10:27;5.07;;;2.97;;
69083;SDS011;56185;48.526;9.044;2023-02-28T03:21:27;5.10;;;3.45;;
69083;SDS011;56185;48.526;9.044;2023-02-28T03:24:04;5.70;;;3.50;;
69083;SDS011;56185;48.526;9.044;2023-02-28T03:26:36;4.13;;;3.00;;
69083;SDS011;56185;48.526;9.044;2023-02-28T03:29:08;4.88;;;3.25;;
69083;SDS011;56185;48.526;9.044;2023-02-28T03:31:50;5.50;;;2.95;;
69083;SDS011;56185;48.526;9.044;2023-02-28T03:36:53;5.68;;;3.20;;
69083;SDS011;56185;48.526;9.044;2023-02-28T03:39:23;9.55;;;3.50;;
69083;SDS011;56185;48.526;9.044;2023-02-28T03:42:04;7.65;;;3.38;;
69083;SDS011;56185;48.526;9.044;2023-02-28T03:44:35;5.50;;;3.20;;
69083;SDS011;56185;48.526;9.044;2023-02-28T03:47:10;6.07;;;3.65;;
69083;SDS011;56185;48.526;9.044;2023-02-28T03:49:49;4.90;;;3.22;;
69083;SDS011;56185;48.526;9.044;2023-02-28T03:52:19;3.95;;;2.97;;
69083;SDS011;56185;48.526;9.044;2023-02-28T03:54:54;6.70;;;3.70;;
69083;SDS011;56185;48.526;9.044;2023-02-28T03:57:28;4.57;;;3.22;;
69083;SDS011;56185;48.526;9.044;2023-02-28T04:00:21;3.83;;;2.92;;
69083;SDS011;56185;48.526;9.044;2023-02-28T04:02:52;6.25;;;3.20;;
69083;SDS011;56185;48.526;9.044;2023-02-28T04:05:21;6.60;;;3.50;;
69083;SDS011;56185;48.526;9.044;2023-02-28T04:07:47;4.85;;;3.30;;
69083;SDS011;56185;48.526;9.044;2023-02-28T04:10:13;8.25;;;3.90;;
69083;SDS011;56185;48.526;9.044;2023-02-28T04:12:39;6.53;;;3.40;;
69083;SDS011;56185;48.526;9.044;2023-02-28T04:15:04;6.95;;;3.47;;
69083;SDS011;56185;48.526;9.044;2023-02-28T04:17:30;7.63;;;3.50;;
69083;SDS011;56185;48.526;9.044;2023-02-28T04:19:55;4.82;;;3.50;;
69083;SDS011;56185;48.526;9.044;2023-02-28T04:22:21;5.53;;;3.70;;
69083;SDS011;56185;48.526;9.044;2023-02-28T04:24:46;6.57;;;3.13;;
69083;SDS011;56185;48.526;9.044;2023-02-28T04:27:11;5.50;;;3.38;;
69083;SDS011;56185;48.526;9.044;2023-02-28T04:29:36;5.38;;;3.85;;
69083;SDS011;56185;48.526;9.044;2023-02-28T04:32:02;6.53;;;3.42;;
69083;SDS011;56185;48.526;9.044;2023-02-28T04:34:29;4.60;;;3.33;;
69083;SDS011;56185;48.526;9.044;2023-02-28T04:36:56;6.07;;;3.53;;
69083;SDS011;56185;48.526;9.044;2023-02-28T04:39:22;6.28;;;3.80;;
69083;SDS011;56185;48.526;9.044;2023-02-28T04:41:48;5.63;;;3.60;;
69083;SDS011;56185;48.526;9.044;2023-02-28T04:44:14;6.07;;;3.38;;
69083;SDS011;56185;48.526;9.044;2023-02-28T04:46:40;6.88;;;3.80;;
69083;SDS011;56185;48.526;9.044;2023-02-28T04:49:06;7.30;;;3.70;;
69083;SDS011;56185;48.526;9.044;2023-02-28T04:51:31;5.28;;;3.60;;
69083;SDS011;56185;48.526;9.044;2023-02-28T04:53:56;7.78;;;4.55;;
69083;SDS011;56185;48.526;9.044;2023-02-28T04:56:22;10.15;;;5.20;;
69083;SDS011;56185;48.526;9.044;2023-02-28T04:58:47;6.07;;;4.07;;
69083;SDS011;56185;48.526;9.044;2023-02-28T05:03:46;6.45;;;4.25;;
69083;SDS011;56185;48.526;9.044;2023-02-28T05:06:12;8.07;;;3.80;;
69083;SDS011;56185;48.526;9.044;2023-02-28T05:08:38;9.02;;;4.18;;
69083;SDS011;56185;48.526;9.044;2023-02-28T05:11:03;5.40;;;3.72;;
69083;SDS011;56185;48.526;9.044;2023-02-28T05:13:31;6.63;;;4.07;;
69083;SDS011;56185;48.526;9.044;2023-02-28T05:15:56;5.50;;;3.57;;
69083;SDS011;56185;48.526;9.044;2023-02-28T05:18:21;5.95;;;4.05;;
69083;SDS011;56185;48.526;9.044;2023-02-28T05:20:47;6.07;;;4.07;;
69083;SDS011;56185;48.526;9.044;2023-02-28T05:23:12;7.65;;;4.47;;
69083;SDS011;56185;48.526;9.044;2023-02-28T05:25:39;6.13;;;4.35;;
69083;SDS011;56185;48.526;9.044;2023-02-28T05:28:05;6.28;;;4.50;;
69083;SDS011;56185;48.526;9.044;2023-02-28T05:30:31;8.32;;;4.18;;
69083;SDS011;56185;48.526;9.044;2023-02-28T05:32:57;7.43;;;4.10;;
69083;SDS011;56185;48.526;9.044;2023-02-28T05:35:23;6.80;;;4.10;;
69083;SDS011;56185;48.526;9.044;2023-02-28T05:37:49;7.05;;;4.57;;
69083;SDS011;56185;48.526;9.044;2023-02-28T05:40:15;6.20;;;4.20;;
69083;SDS011;56185;48.526;9.044;2023-02-28T05:42:40;6.00;;;4.35;;
69083;SDS011;56185;48.526;9.044;2023-02-28T05:45:06;7.53;;;4.40;;
69083;SDS011;56185;48.526;9.044;2023-02-28T05:47:32;6.18;;;4.18;;
69083;SDS011;56185;48.526;9.044;2023-02-28T05:49:57;7.68;;;4.20;;
69083;SDS011;56185;48.526;9.044;2023-02-28T05:52:23;7.60;;;4.50;;
69083;SDS011;56185;48.526;9.044;2023-02-28T05:54:48;7.88;;;4.50;;
69083;SDS011;56185;48.526;9.044;2023-02-28T05:57:14;7.90;;;4.38;;
69083;SDS011;56185;48.526;9.044;2023-02-28T05:59:39;6.40;;;4.53;;
69083;SDS011;56185;48.526;9.044;2023-02-28T06:02:05;8.32;;;5.10;;
69083;SDS011;56185;48.526;9.044;2023-02-28T06:04:34;7.43;;;4.85;;
69083;SDS011;56185;48.526;9.044;2023-02-28T06:06:59;10.77;;;4.77;;
69083;SDS011;56185;48.526;9.044;2023-02-28T06:09:24;6.25;;;4.28;;
69083;SDS011;56185;48.526;9.044;2023-02-28T06:11:50;7.70;;;4.55;;
69083;SDS011;56185;48.526;9.044;2023-02-28T06:14:15;10.75;;;4.70;;
69083;SDS011;56185;48.526;9.044;2023-02-28T06:16:42;8.90;;;4.70;;
69083;SDS011;56185;48.526;9.044;2023-02-28T06:19:08;8.52;;;4.82;;
69083;SDS011;56185;48.526;9.044;2023-02-28T06:21:34;8.52;;;5.00;;
69083;SDS011;56185;48.526;9.044;2023-02-28T06:23:59;7.18;;;4.78;;
69083;SDS011;56185;48.526;9.044;2023-02-28T06:26:24;8.15;;;4.93;;
69083;SDS011;56185;48.526;9.044;2023-02-28T06:28:50;9.70;;;5.05;;
69083;SDS011;56185;48.526;9.044;2023-02-28T06:31:16;8.07;;;4.85;;
69083;SDS011;56185;48.526;9.044;2023-02-28T06:33:43;6.50;;;4.68;;
69083;SDS011;56185;48.526;9.044;2023-02-28T06:36:09;7.50;;;4.50;;
69083;SDS011;56185;48.526;9.044;2023-02-28T06:38:36;7.78;;;4.90;;
69083;SDS011;56185;48.526;9.044;2023-02-28T06:41:02;7.63;;;5.35;;
69083;SDS011;56185;48.526;9.044;2023-02-28T06:43:29;8.18;;;4.80;;
69083;SDS011;56185;48.526;9.044;2023-02-28T06:45:56;6.95;;;4.78;;
69083;SDS011;56185;48.526;9.044;2023-02-28T06:48:23;8.73;;;5.07;;
69083;SDS011;56185;48.526;9.044;2023-02-28T06:50:49;6.43;;;4.72;;
69083;SDS011;56185;48.526;9.044;2023-02-28T06:53:14;7.20;;;5.03;;
69083;SDS011;56185;48.526;9.044;2023-02-28T06:55:39;7.18;;;5.07;;
69083;SDS011;56185;48.526;9.044;2023-02-28T06:58:05;7.85;;;5.20;;
69083;SDS011;56185;48.526;9.044;2023-02-28T07:00:31;10.70;;;5.65;;
69083;SDS011;56185;48.526;9.044;2023-02-28T07:02:56;6.75;;;4.82;;
69083;SDS011;56185;48.526;9.044;2023-02-28T07:05:21;8.85;;;5.03;;
69083;SDS011;56185;48.526;9.044;2023-02-28T07:07:46;9.88;;;5.60;;
69083;SDS011;56185;48.526;9.044;2023-02-28T07:10:12;12.60;;;5.40;;
69083;SDS011;56185;48.526;9.044;2023-02-28T07:12:37;8.98;;;5.45;;
69083;SDS011;56185;48.526;9.044;2023-02-28T07:15:04;10.23;;;5.38;;
69083;SDS011;56185;48.526;9.044;2023-02-28T07:17:29;11.77;;;5.97;;
69083;SDS011;56185;48.526;9.044;2023-02-28T07:19:55;8.50;;;5.45;;
69083;SDS011;56185;48.526;9.044;2023-02-28T07:22:20;10.60;;;5.25;;
69083;SDS011;56185;48.526;9.044;2023-02-28T07:24:45;9.25;;;5.40;;
69083;SDS011;56185;48.526;9.044;2023-02-28T07:27:10;8.40;;;6.00;;
69083;SDS011;56185;48.526;9.044;2023-02-28T07:29:36;10.30;;;5.40;;
69083;SDS011;56185;48.526;9.044;2023-02-28T07:32:01;9.95;;;6.20;;
69083;SDS011;56185;48.526;9.044;2023-02-28T07:34:26;8.25;;;5.63;;
69083;SDS011;56185;48.526;9.044;2023-02-28T07:36:52;9.35;;;5.82;;
69083;SDS011;56185;48.526;9.044;2023-02-28T07:39:19;13.65;;;5.97;;
69083;SDS011;56185;48.526;9.044;2023-02-28T07:41:44;9.40;;;6.10;;
69083;SDS011;56185;48.526;9.044;2023-02-28T07:44:10;10.65;;;5.97;;
69083;SDS011;56185;48.526;9.044;2023-02-28T07:46:35;9.20;;;5.80;;
69083;SDS011;56185;48.526;9.044;2023-02-28T07:49:01;8.60;;;5.90;;
69083;SDS011;56185;48.526;9.044;2023-02-28T07:51:26;8.55;;;5.55;;
69083;SDS011;56185;48.526;9.044;2023-02-28T07:53:51;11.07;;;6.25;;
69083;SDS011;56185;48.526;9.044;2023-02-28T07:56:17;8.30;;;5.45;;
69083;SDS011;56185;48.526;9.044;2023-02-28T07:58:42;9.43;;;6.18;;
69083;SDS011;56185;48.526;9.044;2023-02-28T08:01:08;9.48;;;5.78;;
69083;SDS011;56185;48.526;9.044;2023-02-28T08:03:34;9.00;;;5.95;;
69083;SDS011;56185;48.526;9.044;2023-02-28T08:06:00;8.82;;;5.93;;
69083;SDS011;56185;48.526;9.044;2023-02-28T08:08:26;10.88;;;6.10;;
69083;SDS011;56185;48.526;9.044;2023-02-28T08:10:51;10.75;;;6.30;;
69083;SDS011;56185;48.526;9.044;2023-02-28T08:13:17;11.30;;;6.28;;
69083;SDS011;56185;48.526;9.044;2023-02-28T08:15:42;12.75;;;6.85;;
69083;SDS011;56185;48.526;9.044;2023-02-28T08:18:07;11.25;;;7.00;;
69083;SDS011;56185;48.526;9.044;2023-02-28T08:20:32;10.90;;;6.15;;
69083;SDS011;56185;48.526;9.044;2023-02-28T08:22:57;11.75;;;6.53;;
69083;SDS011;56185;48.526;9.044;2023-02-28T08:25:23;9.15;;;6.35;;
69083;SDS011;56185;48.526;9.044;2023-02-28T08:27:50;9.48;;;5.68;;
69083;SDS011;56185;48.526;9.044;2023-02-28T08:30:16;9.40;;;6.03;;
69083;SDS011;56185;48.526;9.044;2023-02-28T08:32:41;8.13;;;5.97;;
69083;SDS011;56185;48.526;9.044;2023-02-28T08:35:07;10.27;;;6.40;;
69083;SDS011;56185;48.526;9.044;2023-02-28T08:37:32;8.25;;;5.80;;
69083;SDS011;56185;48.526;9.044;2023-02-28T08:39:57;10.00;;;6.40;;
69083;SDS011;56185;48.526;9.044;2023-02-28T08:42:23;9.93;;;6.35;;
69083;SDS011;56185;48.526;9.044;2023-02-28T08:44:49;9.88;;;6.28;;
69083;SDS011;56185;48.526;9.044;2023-02-28T08:47:14;9.90;;;6.00;;
69083;SDS011;56185;48.526;9.044;2023-02-28T08:49:39;10.00;;;6.82;;
69083;SDS011;56185;48.526;9.044;2023-02-28T08:52:05;15.30;;;6.45;;
69083;SDS011;56185;48.526;9.044;2023-02-28T08:54:30;13.48;;;6.80;;
69083;SDS011;56185;48.526;9.044;2023-02-28T08:56:55;11.18;;;6.88;;
69083;SDS011;56185;48.526;9.044;2023-02-28T08:59:20;10.80;;;7.05;;
69083;SDS011;56185;48.526;9.044;2023-02-28T09:01:45;10.85;;;6.97;;
69083;SDS011;56185;48.526;9.044;2023-02-28T09:04:11;11.35;;;6.53;;
69083;SDS011;56185;48.526;9.044;2023-02-28T09:06:36;9.38;;;6.40;;
69083;SDS011;56185;48.526;9.044;2023-02-28T09:09:01;12.52;;;7.30;;
69083;SDS011;56185;48.526;9.044;2023-02-28T09:11:27;12.35;;;7.35;;
69083;SDS011;56185;48.526;9.044;2023-02-28T09:13:53;11.27;;;6.90;;
69083;SDS011;56185;48.526;9.044;2023-02-28T09:16:19;9.85;;;7.15;;
69083;SDS011;56185;48.526;9.044;2023-02-28T09:18:44;9.32;;;6.28;;
69083;SDS011;56185;48.526;9.044;2023-02-28T09:21:10;13.07;;;7.22;;
69083;SDS011;56185;48.526;9.044;2023-02-28T09:23:37;11.13;;;7.28;;
69083;SDS011;56185;48.526;9.044;2023-02-28T09:26:03;12.85;;;7.40;;
69083;SDS011;56185;48.526;9.044;2023-02-28T09:28:29;12.68;;;7.20;;
69083;SDS011;56185;48.526;9.044;2023-02-28T09:30:54;11.15;;;6.90;;
69083;SDS011;56185;48.526;9.044;2023-02-28T09:33:21;11.80;;;7.45;;
69083;SDS011;56185;48.526;9.044;2023-02-28T09:35:47;11.75;;;7.03;;
69083;SDS011;56185;48.526;9.044;2023-02-28T09:38:13;11.48;;;6.90;;
69083;SDS011;56185;48.526;9.044;2023-02-28T09:43:21;14.32;;;7.22;;
69083;SDS011;56185;48.526;9.044;2023-02-28T09:45:59;11.05;;;7.22;;
69083;SDS011;56185;48.526;9.044;2023-02-28T09:48:31;10.32;;;7.45;;
69083;SDS011;56185;48.526;9.044;2023-02-28T09:51:04;11.57;;;6.80;;
69083;SDS011;56185;48.526;9.044;2023-02-28T09:53:35;10.05;;;7.18;;
69083;SDS011;56185;48.526;9.044;2023-02-28T10:04:56;9.40;;;6.50;;
69083;SDS011;56185;48.526;9.044;2023-02-28T10:10:32;10.40;;;6.88;;
69083;SDS011;56185;48.526;9.044;2023-02-28T10:13:02;10.43;;;6.90;;
69083;SDS011;56185;48.526;9.044;2023-02-28T10:15:31;10.68;;;6.78;;
69083;SDS011;56185;48.526;9.044;2023-02-28T10:18:00;10.90;;;7.20;;
69083;SDS011;56185;48.526;9.044;2023-02-28T10:20:29;11.88;;;7.47;;
69083;SDS011;56185;48.526;9.044;2023-02-28T10:25:28;10.18;;;6.75;;
69083;SDS011;56185;48.526;9.044;2023-02-28T10:28:04;11.45;;;7.38;;
69083;SDS011;56185;48.526;9.044;2023-02-28T10:30:35;11.73;;;7.28;;
69083;SDS011;56185;48.526;9.044;2023-02-28T10:33:04;11.93;;;7.03;;
69083;SDS011;56185;48.526;9.044;2023-02-28T10:35:29;11.65;;;7.07;;
69083;SDS011;56185;48.526;9.044;2023-02-28T10:37:55;10.88;;;6.97;;
69083;SDS011;56185;48.526;9.044;2023-02-28T10:42:58;10.02;;;6.72;;
69083;SDS011;56185;48.526;9.044;2023-02-28T10:45:32;11.73;;;6.93;;
69083;SDS011;56185;48.526;9.044;2023-02-28T10:50:43;10.38;;;6.80;;
69083;SDS011;56185;48.526;9.044;2023-02-28T10:53:24;12.15;;;7.70;;
69083;SDS011;56185;48.526;9.044;2023-02-28T10:56:00;13.65;;;7.22;;
69083;SDS011;56185;48.526;9.044;2023-02-28T11:01:44;13.98;;;7.60;;
69083;SDS011;56185;48.526;9.044;2023-02-28T11:06:57;11.93;;;6.38;;
69083;SDS011;56185;48.526;9.044;2023-02-28T11:11:55;11.35;;;7.15;;
69083;SDS011;56185;48.526;9.044;2023-02-28T11:14:25;11.80;;;6.68;;
69083;SDS011;56185;48.526;9.044;2023-02-28T11:16:52;10.88;;;7.00;;
69083;SDS011;56185;48.526;9.044;2023-02-28T11:19:23;10.80;;;7.20;;
69083;SDS011;56185;48.526;9.044;2023-02-28T11:21:59;13.65;;;7.18;;
69083;SDS011;56185;48.526;9.044;2023-02-28T11:24:46;9.93;;;6.95;;
69083;SDS011;56185;48.526;9.044;2023-02-28T11:29:55;10.85;;;6.63;;
69083;SDS011;56185;48.526;9.044;2023-02-28T11:32:27;12.13;;;7.68;;
69083;SDS011;56185;48.526;9.044;2023-02-28T11:35:04;10.30;;;7.13;;
69083;SDS011;56185;48.526;9.044;2023-02-28T11:37:41;11.43;;;7.40;;
69083;SDS011;56185;48.526;9.044;2023-02-28T11:40:17;10.60;;;7.30;;
69083;SDS011;56185;48.526;9.044;2023-02-28T11:42:55;12.23;;;7.50;;
69083;SDS011;56185;48.526;9.044;2023-02-28T11:48:26;14.57;;;7.70;;
69083;SDS011;56185;48.526;9.044;2023-02-28T11:50:59;11.00;;;7.05;;
69083;SDS011;56185;48.526;9.044;2023-02-28T11:56:49;10.82;;;6.88;;
69083;SDS011;56185;48.526;9.044;2023-02-28T11:59:37;9.68;;;6.88;;
69083;SDS011;56185;48.526;9.044;2023-02-28T12:19:00;13.52;;;8.10;;
69083;SDS011;56185;48.526;9.044;2023-02-28T12:21:46;10.10;;;7.45;;
69083;SDS011;56185;48.526;9.044;2023-02-28T12:27:11;10.57;;;7.05;;
69083;SDS011;56185;48.526;9.044;2023-02-28T12:29:48;13.48;;;7.15;;
69083;SDS011;56185;48.526;9.044;2023-02-28T12:32:29;15.63;;;8.63;;
69083;SDS011;56185;48.526;9.044;2023-02-28T12:37:41;11.52;;;7.63;;
69083;SDS011;56185;48.526;9.044;2023-02-28T12:40:12;11.93;;;7.88;;
69083;SDS011;56185;48.526;9.044;2023-02-28T12:42:45;10.70;;;7.57;;
69083;SDS011;56185;48.526;9.044;2023-02-28T12:45:20;10.73;;;7.15;;
69083;SDS011;56185;48.526;9.044;2023-02-28T12:48:10;12.52;;;7.75;;
69083;SDS011;56185;48.526;9.044;2023-02-28T12:50:42;10.65;;;7.47;;
69083;SDS011;56185;48.526;9.044;2023-02-28T13:00:57;11.60;;;7.70;;
69083;SDS011;56185;48.526;9.044;2023-02-28T13:03:57;10.90;;;7.55;;
69083;SDS011;56185;48.526;9.044;2023-02-28T13:09:16;11.15;;;7.35;;
69083;SDS011;56185;48.526;9.044;2023-02-28T13:11:44;10.77;;;7.30;;
69083;SDS011;56185;48.526;9.044;2023-02-28T13:19:22;10.45;;;7.40;;
69083;SDS011;56185;48.526;9.044;2023-02-28T13:21:48;12.00;;;7.35;;
69083;SDS011;56185;48.526;9.044;2023-02-28T13:27:36;11.63;;;7.95;;
69083;SDS011;56185;48.526;9.044;2023-02-28T13:33:29;9.40;;;7.20;;
69083;SDS011;56185;48.526;9.044;2023-02-28T13:36:39;11.02;;;7.18;;
69083;SDS011;56185;48.526;9.044;2023-02-28T13:38:49;12.05;;;7.85;;
69083;SDS011;56185;48.526;9.044;2023-02-28T13:46:31;11.15;;;7.57;;
69083;SDS011;56185;48.526;9.044;2023-02-28T13:51:52;11.60;;;7.47;;
69083;SDS011;56185;48.526;9.044;2023-02-28T14:02:19;11.50;;;7.80;;
69083;SDS011;56185;48.526;9.044;2023-02-28T14:05:06;12.05;;;7.40;;
69083;SDS011;56185;48.526;9.044;2023-02-28T14:07:50;11.48;;;8.15;;
69083;SDS011;56185;48.526;9.044;2023-02-28T14:10:21;11.57;;;7.38;;
69083;SDS011;56185;48.526;9.044;2023-02-28T14:17:54;12.15;;;8.07;;
69083;SDS011;56185;48.526;9.044;2023-02-28T14:20:21;11.35;;;7.80;;
69083;SDS011;56185;48.526;9.044;2023-02-28T14:22:55;12.18;;;8.52;;
69083;SDS011;56185;48.526;9.044;2023-02-28T14:31:12;12.25;;;7.38;;
69083;SDS011;56185;48.526;9.044;2023-02-28T14:34:05;12.93;;;7.65;;
69083;SDS011;56185;48.526;9.044;2023-02-28T14:36:44;11.35;;;7.60;;
69083;SDS011;56185;48.526;9.044;2023-02-28T14:39:13;12.82;;;7.90;;
69083;SDS011;56185;48.526;9.044;2023-02-28T14:41:43;14.00;;;7.65;;
69083;SDS011;56185;48.526;9.044;2023-02-28T14:44:18;11.00;;;7.53;;
69083;SDS011;56185;48.526;9.044;2023-02-28T14:46:46;13.75;;;7.75;;
69083;SDS011;56185;48.526;9.044;2023-02-28T14:49:18;15.38;;;7.93;;
69083;SDS011;56185;48.526;9.044;2023-02-28T14:51:46;10.05;;;7.22;;
69083;SDS011;56185;48.526;9.044;2023-02-28T14:54:15;12.23;;;8.20;;
69083;SDS011;56185;48.526;9.044;2023-02-28T14:56:42;11.15;;;7.53;;
69083;SDS011;56185;48.526;9.044;2023-02-28T14:59:25;10.18;;;7.30;;
69083;SDS011;56185;48.526;9.044;2023-02-28T15:07:39;11.63;;;7.65;;
69083;SDS011;56185;48.526;9.044;2023-02-28T15:12:40;9.27;;;6.75;;
69083;SDS011;56185;48.526;9.044;2023-02-28T15:15:18;12.15;;;7.18;;
69083;SDS011;56185;48.526;9.044;2023-02-28T15:17:45;10.52;;;7.18;;
69083;SDS011;56185;48.526;9.044;2023-02-28T15:20:17;12.15;;;7.10;;
69083;SDS011;56185;48.526;9.044;2023-02-28T15:23:02;10.38;;;7.05;;
69083;SDS011;56185;48.526;9.044;2023-02-28T15:25:30;11.70;;;7.00;;
69083;SDS011;56185;48.526;9.044;2023-02-28T15:27:57;11.38;;;7.20;;
69083;SDS011;56185;48.526;9.044;2023-02-28T15:30:25;10.23;;;6.85;;
69083;SDS011;56185;48.526;9.044;2023-02-28T15:35:51;10.38;;;7.20;;
69083;SDS011;56185;48.526;9.044;2023-02-28T15:38:28;11.30;;;7.40;;
69083;SDS011;56185;48.526;9.044;2023-02-28T15:40:54;10.23;;;7.00;;
69083;SDS011;56185;48.526;9.044;2023-02-28T15:43:31;14.15;;;7.85;;
69083;SDS011;56185;48.526;9.044;2023-02-28T15:45:58;14.05;;;7.00;;
69083;SDS011;56185;48.526;9.044;2023-02-28T15:50:57;11.40;;;7.18;;
69083;SDS011;56185;48.526;9.044;2023-02-28T15:56:35;10.85;;;7.50;;
69083;SDS011;56185;48.526;9.044;2023-02-28T15:59:07;12.77;;;7.30;;
69083;SDS011;56185;48.526;9.044;2023-02-28T16:01:40;17.38;;;9.93;;
69083;SDS011;56185;48.526;9.044;2023-02-28T16:04:11;12.23;;;7.10;;
69083;SDS011;56185;48.526;9.044;2023-02-28T16:06:42;10.98;;;6.95;;
69083;SDS011;56185;48.526;9.044;2023-02-28T16:09:10;11.75;;;8.18;;
69083;SDS011;56185;48.526;9.044;2023-02-28T16:11:43;23.70;;;13.57;;
69083;SDS011;56185;48.526;9.044;2023-02-28T16:14:15;13.82;;;9.32;;
69083;SDS011;56185;48.526;9.044;2023-02-28T16:16:45;17.50;;;11.45;;
69083;SDS011;56185;48.526;9.044;2023-02-28T16:19:13;10.73;;;7.50;;
69083;SDS011;56185;48.526;9.044;2023-02-28T16:21:38;11.55;;;7.43;;
69083;SDS011;56185;48.526;9.044;2023-02-28T16:24:04;12.88;;;8.63;;
69083;SDS011;56185;48.526;9.044;2023-02-28T16:26:29;11.07;;;7.90;;
69083;SDS011;56185;48.526;9.044;2023-02-28T16:28:55;13.80;;;8.75;;
69083;SDS011;56185;48.526;9.044;2023-02-28T16:31:20;14.18;;;8.80;;
69083;SDS011;56185;48.526;9.044;2023-02-28T16:33:46;14.38;;;8.23;;
69083;SDS011;56185;48.526;9.044;2023-02-28T16:36:19;12.07;;;7.68;;
69083;SDS011;56185;48.526;9.044;2023-02-28T16:38:46;14.43;;;9.90;;
69083;SDS011;56185;48.526;9.044;2023-02-28T16:41:12;12.93;;;8.15;;
69083;SDS011;56185;48.526;9.044;2023-02-28T16:43:43;14.50;;;8.50;;
69083;SDS011;56185;48.526;9.044;2023-02-28T16:46:10;12.95;;;8.18;;
69083;SDS011;56185;48.526;9.044;2023-02-28T16:48:36;14.68;;;8.18;;
69083;SDS011;56185;48.526;9.044;2023-02-28T16:51:01;17.70;;;9.32;;
69083;SDS011;56185;48.526;9.044;2023-02-28T16:53:27;19.33;;;10.38;;
69083;SDS011;56185;48.526;9.044;2023-02-28T16:55:52;15.23;;;9.63;;
69083;SDS011;56185;48.526;9.044;2023-02-28T16:58:17;14.90;;;9.60;;
69083;SDS011;56185;48.526;9.044;2023-02-28T17:00:42;15.88;;;9.05;;
69083;SDS011;56185;48.526;9.044;2023-02-28T17:03:12;18.27;;;9.98;;
69083;SDS011;56185;48.526;9.044;2023-02-28T17:05:47;11.50;;;8.02;;
69083;SDS011;56185;48.526;9.044;2023-02-28T17:08:12;11.45;;;7.07;;
69083;SDS011;56185;48.526;9.044;2023-02-28T17:10:37;11.05;;;7.47;;
69083;SDS011;56185;48.526;9.044;2023-02-28T17:13:02;11.10;;;7.15;;
69083;SDS011;56185;48.526;9.044;2023-02-28T17:15:28;11.67;;;7.40;;
69083;SDS011;56185;48.526;9.044;2023-02-28T17:17:53;12.25;;;7.22;;
69083;SDS011;56185;48.526;9.044;2023-02-28T17:20:21;9.60;;;7.13;;
69083;SDS011;56185;48.526;9.044;2023-02-28T17:22:47;9.85;;;6.90;;
69083;SDS011;56185;48.526;9.044;2023-02-28T17:25:12;10.65;;;7.25;;
69083;SDS011;56185;48.526;9.044;2023-02-28T17:27:38;12.00;;;7.75;;
69083;SDS011;56185;48.526;9.044;2023-02-28T17:30:09;12.73;;;7.78;;
69083;SDS011;56185;48.526;9.044;2023-02-28T17:32:39;11.25;;;7.40;;
69083;SDS011;56185;48.526;9.044;2023-02-28T17:35:05;10.63;;;7.38;;